Pagina principale
METAR-TAF:

METAR-TAF

Aeroporti :

Aeroporto di Crotone

Crotone, Italia

latitudine: 39-00N, longitudine: 017-04E, altezza: 155 m

Osservazione

Il bollettino è stato emesso 35 minuti fa, alle 09:50 UTC
Vento 13 kt da sud/sud-ovest
Temperature 25°C
Umidità 54%
Pressione 1011 hPa
Visibilità 10 km o più
nessuna nube inferiore a 1500 m e nessun cumulonembo

METAR: LIBC 070950Z 21013KT CAVOK 25/15 Q1011

Ora: 12:25 (10:25 UTC)

Previsione

Il bollettino è stato emesso 4 ore e 21 minuti fa, alle 06:04 UTC
Previsione valida dal 07 alle 06 UTC al 08 alle 06 UTC
Vento 4 kt da direzioni variabili
Visibilità 10 km o più
nessuna nube inferiore a 1500 m e nessun cumulonembo
Evoluzione graduale
dal 07 alle 09 UTC al 07 alle 11 UTC
Vento 12 kt da sud
Evoluzione graduale
dal 07 alle 18 UTC al 07 alle 20 UTC
Vento 5 kt da direzioni variabili

TAF: LIBC 070604Z 0706/0806 VRB04KT CAVOK BECMG 0709/0711 18012KT BECMG 0718/0720 VRB05KT

Osservazioni e previsioni meteorologiche di più di 4000 aeroporti (messaggi METAR e TAF).

Le stazioni disponibili sono rappresentate dai dischi gialli e rossi sulla carta.

Puntare il mouse per vedere il nome della stazione.

Clicca sopra per visualizzare le osservazioni e previsioni meteorologiche.

Per cambiare la mappa : fare clic sui pulsanti verdi con una croce nera per ingrandire, il pulsante verde con un trattino per diminuire, o sulla freccia verde per le mappe adiacenti.


METAR-TAF: